Time;durP1;ratioP1;P1;durP2;ratioP2;P2;SDS_P1;SDS_P2;PMS_P1;PMS_P2;Temp;Humidity;BMP_temperature;BMP_pressure;BME280_temperature;BME280_humidity;BME280_pressure;Samples;Min_cycle;Max_cycle;Signal;HPM_P1;HPM_P2
2022/07/14 00:00:59;;;;;;;10.88;4.30;;;;;;;;;;2082182;28;20173;-51
2022/07/14 00:01:59;;;;;;;16.10;4.80;;;;;;;;;;2083244;28;20212;-56
2022/07/14 00:02:59;;;;;;;11.88;4.88;;;;;;;;;;2083323;28;20551;-55
2022/07/14 00:04:00;;;;;;;12.15;4.65;;;;;;;;;;2082822;28;20157;-52
2022/07/14 00:05:00;;;;;;;11.50;4.85;;;;;;;;;;2075905;28;20180;-54
2022/07/14 00:06:00;;;;;;;9.88;4.47;;;;;;;;;;2075286;28;20181;-53
2022/07/14 00:07:01;;;;;;;13.52;4.50;;;;;;;;;;2075630;28;20215;-56
2022/07/14 00:08:02;;;;;;;9.43;4.40;;;;;;;;;;2075957;28;20207;-53
2022/07/14 00:09:03;;;;;;;14.52;4.72;;;;;;;;;;2075874;28;20606;-56
2022/07/14 00:10:04;;;;;;;10.82;4.90;;;;;;;;;;2075615;28;20185;-53
2022/07/14 00:11:04;;;;;;;21.08;5.72;;;;;;;;;;2075157;28;20197;-55
2022/07/14 00:12:05;;;;;;;17.25;5.53;;;;;;;;;;2074841;28;20217;-54
2022/07/14 00:13:05;;;;;;;12.55;4.15;;;;;;;;;;2075144;28;20259;-53
2022/07/14 00:14:05;;;;;;;13.85;5.07;;;;;;;;;;2074680;28;20165;-56
2022/07/14 00:15:06;;;;;;;16.92;4.65;;;;;;;;;;2075792;28;20562;-55
2022/07/14 00:16:06;;;;;;;13.82;4.30;;;;;;;;;;2075970;28;20180;-57
2022/07/14 00:17:07;;;;;;;13.65;4.95;;;;;;;;;;2074988;28;20268;-57
2022/07/14 00:18:07;;;;;;;14.38;5.22;;;;;;;;;;2074981;28;20168;-54
2022/07/14 00:19:08;;;;;;;11.18;4.90;;;;;;;;;;2075268;28;20181;-56
2022/07/14 00:20:08;;;;;;;18.27;5.22;;;;;;;;;;2075542;28;20213;-53
2022/07/14 00:21:13;;;;;;;14.10;4.70;;;;;;;;;;2076569;28;20177;-57
2022/07/14 00:22:13;;;;;;;12.60;4.78;;;;;;;;;;2075982;28;20208;-55
2022/07/14 00:23:14;;;;;;;11.70;4.47;;;;;;;;;;2076322;28;20161;-57
2022/07/14 00:24:14;;;;;;;15.02;4.43;;;;;;;;;;2075391;28;20267;-53
2022/07/14 00:25:14;;;;;;;17.25;4.75;;;;;;;;;;2075583;28;20171;-58
2022/07/14 00:26:15;;;;;;;15.73;5.30;;;;;;;;;;2075718;28;20176;-54
2022/07/14 00:27:16;;;;;;;19.08;5.30;;;;;;;;;;2075383;28;20165;-54
2022/07/14 00:28:16;;;;;;;14.20;4.47;;;;;;;;;;2074881;28;20176;-55
2022/07/14 00:29:17;;;;;;;12.15;5.20;;;;;;;;;;2074686;28;20183;-53
2022/07/14 00:30:18;;;;;;;12.95;5.20;;;;;;;;;;2074578;28;20169;-54
2022/07/14 00:31:18;;;;;;;10.95;5.10;;;;;;;;;;2073781;28;20169;-50
2022/07/14 00:32:18;;;;;;;15.40;5.18;;;;;;;;;;2073836;28;20188;-53
2022/07/14 00:33:19;;;;;;;14.48;5.10;;;;;;;;;;2073891;28;20169;-52
2022/07/14 00:34:19;;;;;;;11.80;4.80;;;;;;;;;;2064811;28;20288;-51
2022/07/14 00:35:20;;;;;;;12.48;5.13;;;;;;;;;;2065734;28;20185;-52
2022/07/14 00:36:20;;;;;;;12.07;5.03;;;;;;;;;;2073787;28;20181;-53
2022/07/14 00:37:20;;;;;;;13.93;4.97;;;;;;;;;;2074704;28;20177;-52
2022/07/14 00:38:21;;;;;;;16.58;5.10;;;;;;;;;;2073779;28;20173;-54
2022/07/14 00:39:21;;;;;;;13.18;4.72;;;;;;;;;;2073956;28;20788;-52
2022/07/14 00:40:22;;;;;;;16.65;5.25;;;;;;;;;;2065657;28;20626;-50
2022/07/14 00:41:22;;;;;;;17.35;5.90;;;;;;;;;;2073924;28;20169;-51
2022/07/14 00:42:36;;;;;;;14.40;5.03;;;;;;;;;;2074469;28;20200;-55
2022/07/14 00:43:36;;;;;;;11.98;4.55;;;;;;;;;;2073984;28;20192;-53
2022/07/14 00:44:37;;;;;;;15.52;5.82;;;;;;;;;;2064795;28;20205;-53
2022/07/14 00:45:37;;;;;;;13.93;5.03;;;;;;;;;;2065591;28;20220;-50
2022/07/14 00:46:38;;;;;;;14.27;4.88;;;;;;;;;;2073828;28;20200;-51
2022/07/14 00:47:39;;;;;;;16.50;5.18;;;;;;;;;;2074457;28;20252;-49
2022/07/14 00:48:39;;;;;;;18.38;4.93;;;;;;;;;;2074490;28;20176;-54
2022/07/14 00:49:39;;;;;;;14.00;4.75;;;;;;;;;;2073811;28;20188;-52
2022/07/14 00:50:44;;;;;;;15.20;5.35;;;;;;;;;;2065604;28;20173;-51
2022/07/14 00:51:44;;;;;;;16.95;5.80;;;;;;;;;;2066397;28;20177;-53
2022/07/14 00:52:45;;;;;;;15.27;5.18;;;;;;;;;;2073496;28;20170;-53
2022/07/14 00:53:52;;;;;;;11.20;4.97;;;;;;;;;;2071481;28;20203;-54
2022/07/14 00:54:53;;;;;;;13.10;4.75;;;;;;;;;;2066092;28;20180;-50
2022/07/14 00:55:54;;;;;;;11.77;5.13;;;;;;;;;;2074474;28;20235;-51
2022/07/14 00:56:54;;;;;;;18.17;5.68;;;;;;;;;;2073718;28;20598;-50
2022/07/14 00:57:55;;;;;;;13.02;5.85;;;;;;;;;;2065627;28;20163;-53
2022/07/14 00:58:55;;;;;;;13.13;5.00;;;;;;;;;;2065633;28;20386;-51
2022/07/14 00:59:56;;;;;;;15.77;5.95;;;;;;;;;;2073712;28;20165;-54
2022/07/14 01:00:56;;;;;;;11.43;5.60;;;;;;;;;;2065506;28;20178;-52
2022/07/14 01:01:57;;;;;;;15.77;5.00;;;;;;;;;;2063770;28;20285;-54
2022/07/14 01:02:57;;;;;;;14.57;5.47;;;;;;;;;;2065476;28;20346;-61
2022/07/14 01:03:57;;;;;;;14.82;5.65;;;;;;;;;;2075739;28;20184;-57
2022/07/14 01:04:58;;;;;;;14.18;5.55;;;;;;;;;;2081219;28;20261;-56
2022/07/14 01:05:58;;;;;;;10.05;4.78;;;;;;;;;;2081617;28;20258;-53
2022/07/14 01:06:58;;;;;;;11.30;4.90;;;;;;;;;;2081473;28;20515;-50
2022/07/14 01:07:59;;;;;;;11.93;4.82;;;;;;;;;;2076034;28;20204;-51
2022/07/14 01:09:00;;;;;;;15.02;4.75;;;;;;;;;;2073485;28;20650;-55
2022/07/14 01:10:03;;;;;;;13.52;5.10;;;;;;;;;;2073470;28;20609;-55
2022/07/14 01:11:05;;;;;;;13.30;5.10;;;;;;;;;;2073053;28;20255;-52
2022/07/14 01:12:07;;;;;;;10.82;4.88;;;;;;;;;;2073468;28;20669;-50
2022/07/14 01:13:07;;;;;;;10.43;4.75;;;;;;;;;;2073538;28;20213;-52
2022/07/14 01:14:07;;;;;;;14.05;5.03;;;;;;;;;;2073210;28;20177;-52
2022/07/14 01:15:08;;;;;;;12.50;5.00;;;;;;;;;;2073226;28;20260;-54
2022/07/14 01:16:08;;;;;;;16.95;4.80;;;;;;;;;;2073530;28;20523;-55
2022/07/14 01:17:09;;;;;;;9.73;4.47;;;;;;;;;;2074090;28;20189;-53
2022/07/14 01:18:09;;;;;;;11.25;4.45;;;;;;;;;;2073312;28;20272;-54
2022/07/14 01:19:10;;;;;;;12.45;4.53;;;;;;;;;;2073457;28;20165;-54
2022/07/14 01:20:10;;;;;;;13.02;4.63;;;;;;;;;;2073105;28;20184;-54
2022/07/14 01:21:11;;;;;;;16.65;4.72;;;;;;;;;;2073467;28;20312;-55
2022/07/14 01:22:12;;;;;;;14.45;4.70;;;;;;;;;;2073098;28;20693;-53
2022/07/14 01:23:12;;;;;;;11.35;4.45;;;;;;;;;;2073500;28;20172;-55
2022/07/14 01:24:12;;;;;;;14.77;4.80;;;;;;;;;;2072264;28;20219;-53
2022/07/14 01:25:14;;;;;;;10.00;4.80;;;;;;;;;;2073055;28;20231;-56
2022/07/14 01:26:14;;;;;;;14.20;5.28;;;;;;;;;;2064738;28;20182;-52
2022/07/14 01:27:15;;;;;;;9.43;4.45;;;;;;;;;;2072623;28;20177;-51
2022/07/14 01:28:16;;;;;;;11.80;4.90;;;;;;;;;;2065070;28;20185;-55
2022/07/14 01:29:17;;;;;;;12.45;4.68;;;;;;;;;;2073287;28;20179;-53
2022/07/14 01:30:18;;;;;;;17.33;4.55;;;;;;;;;;2072704;28;20537;-53
2022/07/14 01:31:18;;;;;;;17.08;5.10;;;;;;;;;;2073444;28;20197;-52
2022/07/14 01:32:19;;;;;;;12.60;4.40;;;;;;;;;;2072902;28;20181;-54
2022/07/14 01:33:20;;;;;;;10.90;4.60;;;;;;;;;;2073098;28;20173;-55
2022/07/14 01:34:20;;;;;;;12.98;4.90;;;;;;;;;;2064369;28;20170;-56
2022/07/14 01:35:21;;;;;;;14.80;4.68;;;;;;;;;;2065113;28;20177;-52
2022/07/14 01:36:22;;;;;;;14.30;5.38;;;;;;;;;;2049107;28;20249;-56
2022/07/14 01:37:22;;;;;;;10.10;3.90;;;;;;;;;;2064918;28;20220;-53
2022/07/14 01:38:23;;;;;;;9.02;3.92;;;;;;;;;;2072786;28;20191;-54
2022/07/14 01:39:23;;;;;;;16.27;4.70;;;;;;;;;;2073288;28;20336;-53
2022/07/14 01:40:23;;;;;;;12.63;4.50;;;;;;;;;;2073382;28;20268;-53
2022/07/14 01:41:24;;;;;;;10.90;3.88;;;;;;;;;;2073274;28;20176;-53
2022/07/14 01:42:25;;;;;;;13.73;4.53;;;;;;;;;;2073244;28;20216;-53
2022/07/14 01:43:25;;;;;;;7.38;4.78;;;;;;;;;;2073350;28;20280;-51
2022/07/14 01:44:25;;;;;;;12.45;5.30;;;;;;;;;;2071968;28;20185;-53
2022/07/14 01:45:26;;;;;;;12.57;4.50;;;;;;;;;;2063394;28;20194;-53
2022/07/14 01:46:26;;;;;;;11.98;5.03;;;;;;;;;;2073036;28;20191;-55
2022/07/14 01:47:27;;;;;;;11.00;4.43;;;;;;;;;;2064906;28;20564;-50
2022/07/14 01:48:28;;;;;;;14.20;4.53;;;;;;;;;;2064878;28;20173;-55
2022/07/14 01:49:28;;;;;;;15.02;4.70;;;;;;;;;;2072984;28;20268;-51
2022/07/14 01:50:30;;;;;;;9.75;4.28;;;;;;;;;;2071354;28;20287;-52
2022/07/14 01:51:30;;;;;;;8.95;4.40;;;;;;;;;;2066708;28;20662;-54
2022/07/14 01:52:31;;;;;;;12.38;4.70;;;;;;;;;;2073616;28;20177;-52
2022/07/14 01:53:31;;;;;;;10.27;4.10;;;;;;;;;;2072924;28;20177;-51
2022/07/14 01:54:33;;;;;;;14.95;4.75;;;;;;;;;;2072207;28;20215;-51
2022/07/14 01:55:34;;;;;;;11.27;4.53;;;;;;;;;;2072854;28;20192;-54
2022/07/14 01:56:39;;;;;;;12.73;4.63;;;;;;;;;;2072988;28;20169;-53
2022/07/14 01:57:39;;;;;;;13.32;4.80;;;;;;;;;;2072850;28;20181;-53
2022/07/14 01:58:40;;;;;;;14.63;4.90;;;;;;;;;;2073080;28;20208;-49
2022/07/14 01:59:42;;;;;;;8.23;4.43;;;;;;;;;;2065062;28;20231;-52
2022/07/14 02:00:43;;;;;;;14.65;4.90;;;;;;;;;;2064562;28;20233;-52
2022/07/14 02:01:44;;;;;;;8.88;3.90;;;;;;;;;;2072895;28;20177;-54
2022/07/14 02:02:46;;;;;;;16.13;4.95;;;;;;;;;;2073026;28;20658;-54
2022/07/14 02:03:48;;;;;;;11.30;4.80;;;;;;;;;;2064851;28;20681;-53
2022/07/14 02:04:50;;;;;;;13.73;4.45;;;;;;;;;;2064265;28;20180;-54
2022/07/14 02:05:51;;;;;;;13.43;4.47;;;;;;;;;;2064435;28;20190;-54
2022/07/14 02:06:53;;;;;;;8.55;4.07;;;;;;;;;;2064975;28;20214;-50
2022/07/14 02:08:11;;;;;;;8.25;4.75;;;;;;;;;;2067587;28;20639;-58
2022/07/14 02:09:12;;;;;;;12.63;3.97;;;;;;;;;;2073825;28;20169;-54
2022/07/14 02:12:50;;;;;;;15.75;5.03;;;;;;;;;;2070567;28;20207;-51
2022/07/14 02:13:50;;;;;;;11.18;4.53;;;;;;;;;;2064647;28;20166;-52
2022/07/14 02:14:51;;;;;;;10.90;4.18;;;;;;;;;;2064353;28;20178;-52
2022/07/14 02:15:53;;;;;;;8.05;3.88;;;;;;;;;;2072760;28;20204;-49
2022/07/14 02:16:54;;;;;;;14.20;4.13;;;;;;;;;;2064763;28;20170;-49
2022/07/14 02:17:54;;;;;;;11.45;4.05;;;;;;;;;;2064635;28;20561;-53
2022/07/14 02:18:55;;;;;;;11.35;4.40;;;;;;;;;;2064796;28;20173;-49
2022/07/14 02:19:56;;;;;;;13.10;5.00;;;;;;;;;;2064707;28;20212;-55
2022/07/14 02:20:56;;;;;;;8.38;3.85;;;;;;;;;;2074287;28;20164;-55
2022/07/14 02:21:58;;;;;;;12.25;4.32;;;;;;;;;;2072288;28;20192;-50
2022/07/14 02:22:58;;;;;;;10.55;4.32;;;;;;;;;;2063970;28;20268;-49
2022/07/14 02:23:58;;;;;;;14.13;3.80;;;;;;;;;;2064167;28;20204;-53
2022/07/14 02:24:59;;;;;;;14.40;4.50;;;;;;;;;;2059596;28;20172;-50
2022/07/14 02:25:59;;;;;;;16.80;4.57;;;;;;;;;;2064610;28;20272;-51
2022/07/14 02:27:00;;;;;;;10.85;3.88;;;;;;;;;;2064421;28;20174;-53
2022/07/14 02:28:00;;;;;;;12.25;4.57;;;;;;;;;;2072451;28;20323;-51
2022/07/14 02:29:01;;;;;;;10.15;4.68;;;;;;;;;;2072709;28;20264;-51
2022/07/14 02:30:01;;;;;;;11.15;4.25;;;;;;;;;;2064588;28;20161;-54
2022/07/14 02:31:01;;;;;;;11.88;4.30;;;;;;;;;;2056148;28;20163;-56
2022/07/14 02:32:02;;;;;;;18.30;4.15;;;;;;;;;;2056767;28;20185;-51
2022/07/14 02:33:03;;;;;;;14.05;4.75;;;;;;;;;;2064047;28;20184;-48
2022/07/14 02:34:04;;;;;;;11.05;4.22;;;;;;;;;;2083384;23;20227;-56
2022/07/14 02:35:04;;;;;;;12.93;4.57;;;;;;;;;;2082205;28;20171;-56
2022/07/14 02:36:05;;;;;;;13.23;3.92;;;;;;;;;;2075262;28;20164;-56
2022/07/14 02:37:06;;;;;;;11.25;4.28;;;;;;;;;;2081790;28;20764;-52
2022/07/14 02:38:07;;;;;;;11.13;3.92;;;;;;;;;;2072957;28;20165;-55
2022/07/14 02:39:07;;;;;;;10.52;3.53;;;;;;;;;;2073821;28;20608;-51
2022/07/14 02:40:08;;;;;;;11.75;4.03;;;;;;;;;;2073432;28;20256;-61
2022/07/14 02:41:09;;;;;;;14.90;3.95;;;;;;;;;;2081311;28;20211;-57
2022/07/14 02:42:10;;;;;;;11.10;4.55;;;;;;;;;;2073482;28;20212;-59
2022/07/14 02:43:12;;;;;;;10.25;3.58;;;;;;;;;;2080753;28;20164;-54
2022/07/14 02:44:12;;;;;;;15.48;4.40;;;;;;;;;;2072670;28;20247;-55
2022/07/14 02:45:14;;;;;;;12.05;4.22;;;;;;;;;;2073422;28;20200;-53
2022/07/14 02:46:15;;;;;;;9.50;3.70;;;;;;;;;;2073070;28;20283;-56
2022/07/14 02:47:15;;;;;;;12.02;3.60;;;;;;;;;;2073132;28;20177;-52
2022/07/14 02:48:17;;;;;;;9.60;3.38;;;;;;;;;;2073265;28;20185;-57
2022/07/14 02:49:17;;;;;;;10.07;3.72;;;;;;;;;;2073585;28;20203;-54
2022/07/14 02:50:18;;;;;;;13.73;4.22;;;;;;;;;;2064909;28;20200;-55
2022/07/14 02:51:18;;;;;;;13.38;4.00;;;;;;;;;;2072445;28;20189;-57
2022/07/14 02:52:19;;;;;;;13.82;3.83;;;;;;;;;;2073124;28;20169;-55
2022/07/14 02:53:22;;;;;;;11.88;4.40;;;;;;;;;;2072263;28;20558;-54
2022/07/14 02:54:23;;;;;;;6.88;3.88;;;;;;;;;;2071690;28;20283;-56
2022/07/14 02:55:24;;;;;;;7.38;3.50;;;;;;;;;;2080984;28;20665;-57
2022/07/14 02:56:24;;;;;;;10.93;3.97;;;;;;;;;;2073004;28;20304;-54
2022/07/14 02:57:25;;;;;;;13.05;4.40;;;;;;;;;;2081105;28;20180;-56
2022/07/14 02:58:28;;;;;;;11.32;4.05;;;;;;;;;;2073311;28;20185;-54
2022/07/14 02:59:29;;;;;;;7.88;3.70;;;;;;;;;;2057017;28;20174;-54
2022/07/14 03:00:30;;;;;;;11.75;3.80;;;;;;;;;;2056788;28;20198;-55
2022/07/14 03:01:31;;;;;;;11.52;3.85;;;;;;;;;;2079288;28;20259;-57
2022/07/14 03:02:32;;;;;;;11.57;4.10;;;;;;;;;;2080476;28;20208;-54
2022/07/14 03:03:34;;;;;;;10.32;4.28;;;;;;;;;;2080973;28;20176;-54
2022/07/14 03:04:35;;;;;;;16.10;4.50;;;;;;;;;;2080327;28;20172;-55
2022/07/14 03:05:36;;;;;;;13.48;4.05;;;;;;;;;;2072956;28;20260;-54
2022/07/14 03:06:37;;;;;;;9.68;4.18;;;;;;;;;;2073027;28;20169;-52
2022/07/14 03:07:39;;;;;;;14.35;4.05;;;;;;;;;;2073323;28;20169;-56
2022/07/14 03:08:41;;;;;;;11.75;3.60;;;;;;;;;;2080518;28;20179;-58
2022/07/14 03:09:42;;;;;;;11.48;3.72;;;;;;;;;;2073091;28;20161;-56
2022/07/14 03:10:43;;;;;;;12.05;4.13;;;;;;;;;;2081270;28;20192;-55
2022/07/14 03:11:43;;;;;;;7.25;3.65;;;;;;;;;;2073287;28;20169;-55
2022/07/14 03:12:44;;;;;;;8.30;3.58;;;;;;;;;;2081406;28;20559;-54
2022/07/14 03:13:45;;;;;;;10.77;4.00;;;;;;;;;;2080518;28;20183;-53
2022/07/14 03:14:45;;;;;;;10.50;3.63;;;;;;;;;;2072131;28;20199;-57
2022/07/14 03:15:45;;;;;;;12.95;4.25;;;;;;;;;;2065549;28;20654;-56
2022/07/14 03:16:46;;;;;;;9.15;4.10;;;;;;;;;;2081885;28;20168;-57
2022/07/14 03:17:47;;;;;;;12.82;4.10;;;;;;;;;;2082083;28;20180;-54
2022/07/14 03:18:47;;;;;;;16.40;4.00;;;;;;;;;;2073991;28;20609;-57
2022/07/14 03:19:49;;;;;;;10.63;4.07;;;;;;;;;;2081966;28;20203;-57
2022/07/14 03:20:53;;;;;;;10.15;4.13;;;;;;;;;;2073963;28;20209;-59
2022/07/14 03:21:53;;;;;;;11.57;4.28;;;;;;;;;;2073705;28;20175;-57
2022/07/14 03:22:54;;;;;;;10.40;3.78;;;;;;;;;;2073704;28;20646;-56
2022/07/14 03:23:57;;;;;;;11.70;4.40;;;;;;;;;;2072888;28;20201;-57
2022/07/14 03:25:01;;;;;;;10.05;4.22;;;;;;;;;;2073491;28;20235;-57
2022/07/14 03:26:02;;;;;;;9.80;4.15;;;;;;;;;;2073027;28;20184;-53
2022/07/14 03:27:03;;;;;;;10.57;4.32;;;;;;;;;;2072846;28;20161;-55
2022/07/14 03:28:05;;;;;;;11.90;4.30;;;;;;;;;;2081382;28;20176;-58
2022/07/14 03:29:10;;;;;;;11.43;4.28;;;;;;;;;;2073372;28;20541;-58
2022/07/14 03:30:11;;;;;;;11.85;4.82;;;;;;;;;;2080912;28;20172;-58
2022/07/14 03:31:11;;;;;;;9.85;4.18;;;;;;;;;;2080916;28;20160;-53
2022/07/14 03:32:12;;;;;;;14.63;4.55;;;;;;;;;;2072980;28;20180;-53
2022/07/14 03:33:13;;;;;;;12.70;4.68;;;;;;;;;;2072891;28;20184;-50
2022/07/14 03:34:13;;;;;;;15.55;4.40;;;;;;;;;;2071927;28;20299;-56
2022/07/14 03:35:16;;;;;;;12.70;3.53;;;;;;;;;;2074814;28;20214;-58
2022/07/14 03:36:18;;;;;;;11.60;4.38;;;;;;;;;;2074677;28;20659;-55
2022/07/14 03:37:19;;;;;;;11.25;5.05;;;;;;;;;;2082767;28;20188;-57
2022/07/14 03:38:26;;;;;;;10.77;3.95;;;;;;;;;;2083623;28;20172;-56
2022/07/14 03:39:29;;;;;;;14.80;4.55;;;;;;;;;;2082810;28;20262;-59
2022/07/14 03:40:30;;;;;;;13.77;5.40;;;;;;;;;;2082630;28;20184;-54
2022/07/14 03:41:31;;;;;;;13.68;4.10;;;;;;;;;;2083016;28;20168;-54
2022/07/14 03:42:31;;;;;;;13.02;4.88;;;;;;;;;;2082100;28;20702;-56
2022/07/14 03:43:33;;;;;;;10.57;4.57;;;;;;;;;;2082335;28;20207;-56
2022/07/14 03:44:35;;;;;;;13.40;4.75;;;;;;;;;;2073797;28;20185;-57
2022/07/14 03:45:36;;;;;;;10.15;4.70;;;;;;;;;;2074457;28;20256;-57
2022/07/14 03:46:37;;;;;;;10.85;4.68;;;;;;;;;;2074740;28;20283;-59
2022/07/14 03:47:44;;;;;;;11.38;5.43;;;;;;;;;;2082995;28;20176;-56
2022/07/14 03:48:46;;;;;;;10.38;4.15;;;;;;;;;;2082501;28;20160;-56
2022/07/14 03:49:47;;;;;;;8.93;4.60;;;;;;;;;;2082594;28;20311;-57
2022/07/14 03:50:47;;;;;;;14.38;5.32;;;;;;;;;;2075843;28;20165;-55
2022/07/14 03:51:50;;;;;;;10.13;4.95;;;;;;;;;;2082764;28;20296;-56
2022/07/14 03:52:54;;;;;;;9.02;4.25;;;;;;;;;;2074738;28;20172;-58
2022/07/14 03:53:55;;;;;;;12.07;4.30;;;;;;;;;;2082057;28;20275;-55
2022/07/14 03:54:56;;;;;;;13.85;4.78;;;;;;;;;;2073902;28;20185;-57
2022/07/14 03:55:56;;;;;;;13.82;5.22;;;;;;;;;;2074523;28;20161;-57
2022/07/14 03:56:58;;;;;;;12.43;4.93;;;;;;;;;;2082325;28;20581;-55
2022/07/14 03:58:00;;;;;;;10.60;4.43;;;;;;;;;;2074660;28;20169;-55
2022/07/14 03:59:04;;;;;;;11.80;4.25;;;;;;;;;;2082785;28;20176;-55
2022/07/14 04:00:05;;;;;;;14.05;4.63;;;;;;;;;;2066291;28;20686;-57
2022/07/14 04:01:17;;;;;;;15.57;4.80;;;;;;;;;;2061460;28;20163;-53
2022/07/14 04:02:21;;;;;;;13.50;5.20;;;;;;;;;;2074480;28;20193;-60
2022/07/14 04:03:22;;;;;;;9.25;4.40;;;;;;;;;;2078878;28;20176;-55
2022/07/14 04:04:24;;;;;;;10.98;5.10;;;;;;;;;;2081978;28;20200;-55
2022/07/14 04:05:24;;;;;;;14.55;4.40;;;;;;;;;;2082833;28;20172;-56
2022/07/14 04:06:28;;;;;;;12.52;5.07;;;;;;;;;;2082650;28;20172;-54
2022/07/14 04:07:28;;;;;;;10.50;4.35;;;;;;;;;;2074133;28;20173;-57
2022/07/14 04:08:29;;;;;;;15.07;5.25;;;;;;;;;;2074477;28;20256;-57
2022/07/14 04:09:34;;;;;;;11.07;4.63;;;;;;;;;;2066787;28;20185;-57
2022/07/14 04:10:35;;;;;;;8.98;4.15;;;;;;;;;;2075099;28;20669;-59
2022/07/14 04:11:36;;;;;;;7.97;3.75;;;;;;;;;;2082567;28;20230;-56
2022/07/14 04:12:37;;;;;;;11.82;4.50;;;;;;;;;;2074500;28;20173;-55
2022/07/14 04:13:38;;;;;;;9.93;4.10;;;;;;;;;;2065920;28;20170;-56
2022/07/14 04:14:39;;;;;;;11.32;4.20;;;;;;;;;;2081173;28;20570;-53
2022/07/14 04:15:39;;;;;;;16.77;4.45;;;;;;;;;;2082848;28;20218;-54
2022/07/14 04:16:40;;;;;;;14.18;5.20;;;;;;;;;;2082464;28;20661;-59
2022/07/14 04:17:41;;;;;;;12.65;4.80;;;;;;;;;;2074361;28;20591;-54
2022/07/14 04:18:41;;;;;;;15.38;4.47;;;;;;;;;;2082712;28;20230;-59
2022/07/14 04:19:42;;;;;;;13.52;5.40;;;;;;;;;;2082609;28;20303;-56
2022/07/14 04:20:49;;;;;;;13.77;4.90;;;;;;;;;;2082423;28;20172;-57
2022/07/14 04:21:49;;;;;;;16.33;5.85;;;;;;;;;;2075560;28;20199;-57
2022/07/14 04:22:50;;;;;;;18.25;5.32;;;;;;;;;;2074595;28;20227;-63
2022/07/14 04:23:51;;;;;;;17.67;5.13;;;;;;;;;;2074491;28;20551;-58
2022/07/14 04:24:52;;;;;;;13.80;4.90;;;;;;;;;;2074213;28;20177;-57
2022/07/14 04:25:53;;;;;;;15.27;4.80;;;;;;;;;;2083128;28;20577;-57
2022/07/14 04:26:54;;;;;;;18.02;4.82;;;;;;;;;;2083210;28;20263;-58
2022/07/14 04:27:54;;;;;;;16.42;5.65;;;;;;;;;;2083898;28;20198;-57
2022/07/14 04:28:55;;;;;;;14.23;4.32;;;;;;;;;;2075618;28;20211;-58
2022/07/14 04:29:56;;;;;;;11.95;4.45;;;;;;;;;;2075397;28;20177;-57
2022/07/14 04:30:56;;;;;;;12.95;4.38;;;;;;;;;;2083041;28;20186;-58
2022/07/14 04:31:57;;;;;;;13.82;5.20;;;;;;;;;;2083688;28;20246;-58
2022/07/14 04:32:58;;;;;;;13.20;5.07;;;;;;;;;;2083207;28;20221;-57
2022/07/14 04:33:59;;;;;;;12.30;5.47;;;;;;;;;;2076928;28;20243;-55
2022/07/14 04:35:00;;;;;;;11.35;5.95;;;;;;;;;;2066751;28;20177;-56
2022/07/14 04:36:01;;;;;;;14.25;4.82;;;;;;;;;;2074647;28;20685;-58
2022/07/14 04:37:02;;;;;;;12.52;4.60;;;;;;;;;;2082157;28;20165;-54
2022/07/14 04:38:02;;;;;;;9.50;5.13;;;;;;;;;;2082562;28;20176;-53
2022/07/14 04:39:08;;;;;;;9.40;4.47;;;;;;;;;;2082516;28;20211;-52
2022/07/14 04:40:09;;;;;;;8.68;4.60;;;;;;;;;;2074611;28;20195;-56
2022/07/14 04:41:09;;;;;;;13.65;4.85;;;;;;;;;;2082132;28;20270;-55
2022/07/14 04:42:13;;;;;;;14.00;5.13;;;;;;;;;;2082587;28;20196;-58
2022/07/14 04:43:17;;;;;;;11.63;4.07;;;;;;;;;;2074588;28;20177;-58
2022/07/14 04:44:18;;;;;;;10.80;4.40;;;;;;;;;;2073572;28;21079;-56
2022/07/14 04:45:22;;;;;;;11.45;4.82;;;;;;;;;;2073741;28;20711;-56
2022/07/14 04:46:22;;;;;;;10.90;4.78;;;;;;;;;;2081645;28;20616;-57
2022/07/14 04:47:29;;;;;;;9.32;4.35;;;;;;;;;;2074818;28;20670;-54
2022/07/14 04:48:29;;;;;;;11.05;4.60;;;;;;;;;;2082755;28;20299;-56
2022/07/14 04:52:09;;;;;;;10.77;3.97;;;;;;;;;;2083654;28;20174;-59
2022/07/14 04:53:24;;;;;;;10.02;4.90;;;;;;;;;;2077032;28;20176;-57
2022/07/14 04:54:51;;;;;;;9.93;4.32;;;;;;;;;;2071047;28;20191;-54
2022/07/14 04:56:12;;;;;;;8.52;4.22;;;;;;;;;;2082690;28;20253;-59
2022/07/14 04:57:22;;;;;;;9.80;4.53;;;;;;;;;;2084698;28;20637;-59
2022/07/14 04:58:25;;;;;;;13.60;5.70;;;;;;;;;;2082809;28;20184;-56
2022/07/14 04:59:27;;;;;;;9.15;4.18;;;;;;;;;;2074909;28;20724;-55
2022/07/14 05:00:27;;;;;;;10.65;4.25;;;;;;;;;;2074854;28;20169;-54
2022/07/14 05:01:28;;;;;;;13.48;5.05;;;;;;;;;;2082537;28;20179;-57
2022/07/14 05:02:28;;;;;;;11.85;4.75;;;;;;;;;;2082343;28;20184;-59
2022/07/14 05:03:28;;;;;;;18.40;5.00;;;;;;;;;;2090604;28;20621;-55
2022/07/14 05:04:29;;;;;;;11.02;4.80;;;;;;;;;;2081425;28;20198;-55
2022/07/14 05:05:30;;;;;;;8.38;4.22;;;;;;;;;;2074120;28;20172;-56
2022/07/14 05:06:30;;;;;;;16.33;5.38;;;;;;;;;;2074366;28;20196;-58
2022/07/14 05:07:31;;;;;;;11.43;4.78;;;;;;;;;;2074058;28;20703;-56
2022/07/14 05:08:33;;;;;;;10.15;4.60;;;;;;;;;;2073939;28;20173;-56
2022/07/14 05:09:34;;;;;;;14.75;5.45;;;;;;;;;;2082305;28;20171;-57
2022/07/14 05:10:36;;;;;;;12.07;4.63;;;;;;;;;;2082148;28;20172;-56
2022/07/14 05:11:37;;;;;;;13.15;4.80;;;;;;;;;;2082300;28;20203;-59
2022/07/14 05:12:37;;;;;;;9.55;4.72;;;;;;;;;;2082057;28;20176;-57
2022/07/14 05:13:39;;;;;;;12.25;4.63;;;;;;;;;;2089841;28;20183;-55
2022/07/14 05:14:39;;;;;;;12.32;4.90;;;;;;;;;;2089259;28;20209;-55
2022/07/14 05:15:41;;;;;;;9.88;5.13;;;;;;;;;;2081887;28;20286;-55
2022/07/14 05:16:44;;;;;;;12.10;4.40;;;;;;;;;;2073502;28;20192;-55
2022/07/14 05:17:44;;;;;;;13.85;4.63;;;;;;;;;;2081968;28;20168;-54
2022/07/14 05:18:47;;;;;;;9.68;3.80;;;;;;;;;;2081870;28;20565;-56
2022/07/14 05:19:47;;;;;;;17.13;5.18;;;;;;;;;;2073907;28;20176;-58
2022/07/14 05:20:48;;;;;;;15.23;4.72;;;;;;;;;;2081708;28;20207;-54
2022/07/14 05:21:48;;;;;;;14.05;4.78;;;;;;;;;;2082039;28;20588;-54
2022/07/14 05:22:49;;;;;;;10.65;4.57;;;;;;;;;;2082027;28;20214;-53
2022/07/14 05:23:49;;;;;;;17.10;4.82;;;;;;;;;;2073870;28;20625;-56
2022/07/14 05:24:51;;;;;;;13.18;4.70;;;;;;;;;;2073237;28;20268;-57
2022/07/14 05:25:54;;;;;;;15.23;4.75;;;;;;;;;;2073596;28;20299;-56
2022/07/14 05:26:58;;;;;;;13.77;4.70;;;;;;;;;;2074508;28;20173;-54
2022/07/14 05:28:00;;;;;;;9.77;3.90;;;;;;;;;;2073975;28;20177;-54
2022/07/14 05:29:03;;;;;;;16.15;4.50;;;;;;;;;;2073969;28;20629;-58
2022/07/14 05:30:04;;;;;;;11.18;4.32;;;;;;;;;;2065716;28;20169;-56
2022/07/14 05:31:06;;;;;;;11.40;4.07;;;;;;;;;;2065921;28;20243;-54
2022/07/14 05:32:13;;;;;;;6.75;3.97;;;;;;;;;;2076805;28;20269;-56
2022/07/14 05:33:14;;;;;;;12.23;3.97;;;;;;;;;;2078356;28;20188;-56
2022/07/14 05:34:15;;;;;;;12.27;4.65;;;;;;;;;;2075219;28;20208;-58
2022/07/14 05:35:16;;;;;;;7.53;3.20;;;;;;;;;;2065447;28;20173;-56
2022/07/14 05:36:17;;;;;;;10.60;3.72;;;;;;;;;;2065709;28;20201;-58
2022/07/14 05:37:17;;;;;;;11.50;4.22;;;;;;;;;;2065359;28;20177;-55
2022/07/14 05:38:20;;;;;;;11.77;4.05;;;;;;;;;;2065770;28;20184;-60
2022/07/14 05:39:20;;;;;;;9.45;3.83;;;;;;;;;;2075736;28;20172;-56
2022/07/14 05:40:22;;;;;;;12.75;3.50;;;;;;;;;;2081512;28;20180;-58
2022/07/14 05:41:22;;;;;;;12.23;3.67;;;;;;;;;;2076822;28;20263;-55
2022/07/14 05:42:22;;;;;;;11.45;3.90;;;;;;;;;;2076578;28;20204;-57
2022/07/14 05:43:24;;;;;;;13.48;3.83;;;;;;;;;;2073479;28;20196;-58
2022/07/14 05:44:25;;;;;;;9.48;3.67;;;;;;;;;;2064519;28;20232;-53
2022/07/14 05:45:26;;;;;;;8.52;3.35;;;;;;;;;;2057643;28;20175;-53
2022/07/14 05:46:27;;;;;;;8.95;3.35;;;;;;;;;;2072768;28;20925;-55
2022/07/14 05:47:27;;;;;;;11.02;3.85;;;;;;;;;;2073489;28;20181;-54
2022/07/14 05:48:27;;;;;;;13.00;3.67;;;;;;;;;;2081269;28;20211;-58
2022/07/14 05:49:28;;;;;;;8.13;3.22;;;;;;;;;;2067904;28;20260;-53
2022/07/14 05:50:28;;;;;;;9.52;3.47;;;;;;;;;;2070454;28;20639;-52
2022/07/14 05:51:29;;;;;;;5.70;3.10;;;;;;;;;;2070732;28;20161;-55
2022/07/14 05:52:30;;;;;;;7.50;3.13;;;;;;;;;;2073036;28;20694;-58
2022/07/14 05:53:31;;;;;;;8.52;3.05;;;;;;;;;;2082940;28;20269;-49
2022/07/14 05:54:31;;;;;;;10.18;3.55;;;;;;;;;;2080261;28;20172;-57
2022/07/14 05:55:32;;;;;;;9.85;3.47;;;;;;;;;;2068996;28;20169;-55
2022/07/14 05:56:33;;;;;;;9.70;4.03;;;;;;;;;;2067753;28;20174;-52
2022/07/14 05:57:34;;;;;;;11.10;3.70;;;;;;;;;;2081170;28;20211;-52
2022/07/14 05:58:35;;;;;;;8.93;3.60;;;;;;;;;;2073098;28;20169;-55
2022/07/14 05:59:38;;;;;;;5.50;2.78;;;;;;;;;;2068180;28;20173;-58
2022/07/14 06:00:39;;;;;;;7.75;2.92;;;;;;;;;;2078253;28;20183;-55
2022/07/14 06:01:39;;;;;;;6.30;2.60;;;;;;;;;;2068013;28;20189;-54
2022/07/14 06:02:39;;;;;;;9.40;3.25;;;;;;;;;;2078401;28;20287;-52
2022/07/14 06:03:40;;;;;;;7.95;2.70;;;;;;;;;;2073241;28;20656;-56
2022/07/14 06:04:41;;;;;;;7.25;2.42;;;;;;;;;;2072474;28;20180;-55
2022/07/14 06:05:41;;;;;;;9.02;2.70;;;;;;;;;;2081231;28;20164;-56
2022/07/14 06:06:45;;;;;;;9.52;2.67;;;;;;;;;;2073359;28;20719;-53
2022/07/14 06:07:46;;;;;;;5.28;2.83;;;;;;;;;;2073164;28;20184;-57
2022/07/14 06:08:46;;;;;;;10.15;3.13;;;;;;;;;;2066144;28;20673;-55
2022/07/14 06:09:49;;;;;;;7.07;2.88;;;;;;;;;;2065039;28;20651;-55